MQP weather

Kruger Mpumalanga International Airport
Mpumalanga, Mpumalanga, South Africa

Public forecast

Using degrees Celsius for public forecast. Weather courtesy of forecast.io.

METAR (pilot weather report)

Retrieved 2019/07/20 02:00 UTC (13 minutes ago):

FAKN 200200Z AUTO 29004KT //// // ////// 17/M02 Q1017

TAF (pilot weather forecast)

Forecast is more than 12 hours old.

Retrieved 2017/06/05 04:55 UTC (2 years ago):

TAF FAKN 050300Z 0504/0515 25006KT CAVOK BECMG 0511/0513 13005KT SCT030 BECMG 0513/0515 07005KT TX22/0513ZTN08/0504Z